Time;durP1;ratioP1;P1;durP2;ratioP2;P2;SDS_P1;SDS_P2;PMS_P1;PMS_P2;Temp;Humidity;BMP_temperature;BMP_pressure;BME280_temperature;BME280_humidity;BME280_pressure;Samples;Min_cycle;Max_cycle;Signal;HPM_P1;HPM_P2
2021/10/06 00:03:07;;;;;;;12.68;7.97;;;;;;;9.33;100.00;95558.69;10168615;29;20056;-70
2021/10/06 00:08:10;;;;;;;12.17;7.87;;;;;;;9.39;100.00;95555.03;10151992;29;20032;-70
2021/10/06 00:13:12;;;;;;;18.77;8.07;;;;;;;9.41;100.00;95554.78;10183216;29;20291;-73
2021/10/06 00:18:14;;;;;;;13.27;7.35;;;;;;;9.41;100.00;95534.13;10182760;29;20032;-72
2021/10/06 00:23:15;;;;;;;15.30;7.32;;;;;;;9.46;100.00;95533.41;10168319;29;20023;-70
2021/10/06 00:28:15;;;;;;;13.50;7.68;;;;;;;9.44;100.00;95519.41;10166533;29;20099;-70
2021/10/06 00:33:16;;;;;;;11.82;7.43;;;;;;;9.45;100.00;95504.94;10167952;29;20088;-71
2021/10/06 00:38:16;;;;;;;12.70;8.20;;;;;;;9.30;100.00;95521.63;10167862;29;20039;-71
2021/10/06 00:43:17;;;;;;;11.63;7.18;;;;;;;9.27;100.00;95526.69;10182087;29;20090;-75
2021/10/06 00:48:17;;;;;;;9.57;6.60;;;;;;;9.21;100.00;95517.75;10181988;29;20039;-70
2021/10/06 00:53:18;;;;;;;15.77;7.55;;;;;;;9.18;100.00;95512.84;10167003;29;20036;-72
2021/10/06 00:58:19;;;;;;;11.70;7.47;;;;;;;9.21;100.00;95507.03;10165750;29;20028;-70
2021/10/06 01:03:20;;;;;;;11.23;6.55;;;;;;;9.24;100.00;95506.53;10164196;29;20304;-75
2021/10/06 01:08:21;;;;;;;12.25;7.45;;;;;;;9.24;100.00;95487.75;10165063;29;20027;-70
2021/10/06 01:13:22;;;;;;;7.38;5.72;;;;;;;9.14;100.00;95479.53;10149337;29;20053;-70
2021/10/06 01:18:22;;;;;;;10.85;7.13;;;;;;;9.10;100.00;95473.88;10164951;29;20044;-71
2021/10/06 01:23:23;;;;;;;9.60;6.43;;;;;;;9.07;100.00;95491.25;10164961;29;20024;-74
2021/10/06 01:28:23;;;;;;;14.60;7.55;;;;;;;9.02;100.00;95485.00;10165149;29;20276;-72
2021/10/06 01:33:24;;;;;;;9.23;6.97;;;;;;;9.01;100.00;95494.09;10164376;29;20123;-71
2021/10/06 01:38:24;;;;;;;16.83;7.35;;;;;;;8.87;100.00;95494.44;10164420;29;20832;-70
2021/10/06 01:43:25;;;;;;;13.63;6.80;;;;;;;8.83;100.00;95485.25;10164492;29;20028;-70
2021/10/06 01:48:25;;;;;;;12.52;7.07;;;;;;;8.76;100.00;95473.06;10148500;29;21160;-71
2021/10/06 01:53:35;;;;;;;14.23;7.43;;;;;;;8.79;100.00;95481.44;10179035;29;20032;-74
2021/10/06 01:58:36;;;;;;;15.98;8.10;;;;;;;8.79;100.00;95476.09;10164599;29;20418;-72
2021/10/06 02:03:36;;;;;;;15.30;7.80;;;;;;;8.68;100.00;95472.41;10147544;29;20048;-72
2021/10/06 02:08:37;;;;;;;16.87;8.37;;;;;;;8.66;100.00;95482.53;10164625;29;20047;-74
2021/10/06 02:13:37;;;;;;;16.10;8.63;;;;;;;8.71;100.00;95484.53;10164471;29;20295;-71
2021/10/06 02:18:38;;;;;;;14.75;7.85;;;;;;;8.73;100.00;95482.41;10163136;29;20032;-71
2021/10/06 02:23:38;;;;;;;16.70;8.52;;;;;;;8.66;100.00;95485.22;10162831;29;20153;-70
2021/10/06 02:28:40;;;;;;;14.97;8.57;;;;;;;8.60;100.00;95482.72;10163329;29;20047;-70
2021/10/06 02:33:41;;;;;;;15.20;7.07;;;;;;;8.53;100.00;95493.59;10178068;29;20697;-73
2021/10/06 02:38:41;;;;;;;16.52;8.65;;;;;;;8.56;100.00;95493.09;10162656;29;20142;-71
2021/10/06 02:43:42;;;;;;;14.95;9.45;;;;;;;8.39;100.00;95488.47;10162466;29;20036;-71
2021/10/06 02:48:42;;;;;;;11.60;8.38;;;;;;;8.34;100.00;95495.63;10162413;29;20032;-70
2021/10/06 02:53:42;;;;;;;21.73;8.48;;;;;;;8.28;100.00;95492.03;10162008;29;20636;-71
2021/10/06 02:58:43;;;;;;;13.87;8.80;;;;;;;8.16;100.00;95489.41;10162868;29;20118;-72
2021/10/06 03:03:44;;;;;;;15.70;9.13;;;;;;;8.21;100.00;95486.03;10177174;29;20675;-71
2021/10/06 03:08:44;;;;;;;16.60;9.02;;;;;;;8.10;100.00;95485.00;10177794;29;20043;-71
2021/10/06 03:13:44;;;;;;;14.65;9.75;;;;;;;8.04;100.00;95473.38;10177549;29;20644;-71
2021/10/06 03:18:45;;;;;;;19.00;11.33;;;;;;;8.13;100.00;95478.38;10178171;29;20036;-70
2021/10/06 03:23:45;;;;;;;14.82;9.73;;;;;;;8.02;100.00;95472.81;10178571;29;20279;-72
2021/10/06 03:28:46;;;;;;;15.90;9.98;;;;;;;8.09;100.00;95467.31;10184826;29;20032;-70
2021/10/06 03:33:46;;;;;;;19.00;10.48;;;;;;;8.05;100.00;95471.50;10168870;29;20099;-69
2021/10/06 03:38:46;;;;;;;20.70;10.73;;;;;;;8.12;100.00;95469.53;10168487;29;20030;-70
2021/10/06 03:43:47;;;;;;;15.63;9.57;;;;;;;8.15;100.00;95473.56;10184384;29;20284;-72
2021/10/06 03:48:47;;;;;;;17.73;10.50;;;;;;;8.08;100.00;95460.34;10168527;29;20028;-69
2021/10/06 03:53:48;;;;;;;22.50;11.18;;;;;;;8.11;100.00;95462.53;10167760;29;20312;-76
2021/10/06 03:58:48;;;;;;;19.57;11.37;;;;;;;8.22;100.00;95474.25;10183913;29;20028;-70
2021/10/06 04:03:48;;;;;;;26.37;12.23;;;;;;;8.15;100.00;95468.22;10168346;29;20307;-71
2021/10/06 04:08:49;;;;;;;19.13;12.02;;;;;;;7.99;100.00;95465.25;10168599;29;20284;-70
2021/10/06 04:13:49;;;;;;;23.77;12.03;;;;;;;8.09;100.00;95455.78;10167428;29;20408;-71
2021/10/06 04:18:50;;;;;;;22.15;12.43;;;;;;;8.11;100.00;95459.06;10168233;29;20332;-70
2021/10/06 04:23:50;;;;;;;24.63;13.67;;;;;;;8.02;100.00;95445.22;10166478;29;20079;-71
2021/10/06 04:28:51;;;;;;;21.55;12.63;;;;;;;8.05;100.00;95460.81;10165852;29;20283;-70
2021/10/06 04:33:51;;;;;;;28.83;14.63;;;;;;;7.99;100.00;95445.72;10164800;29;20032;-71
2021/10/06 04:38:52;;;;;;;22.63;13.48;;;;;;;8.07;100.00;95444.53;10166288;29;20225;-69
2021/10/06 04:43:52;;;;;;;20.95;12.93;;;;;;;8.09;100.00;95440.53;10179648;29;20028;-70
2021/10/06 04:48:53;;;;;;;28.25;15.38;;;;;;;8.16;100.00;95441.22;10164997;29;20127;-70
2021/10/06 04:53:53;;;;;;;29.45;15.35;;;;;;;8.13;100.00;95435.53;10166254;28;20032;-71
2021/10/06 04:58:53;;;;;;;31.43;14.73;;;;;;;8.29;100.00;95448.16;10166173;29;20128;-74
2021/10/06 05:03:54;;;;;;;29.20;14.63;;;;;;;8.35;100.00;95449.84;10165933;29;20326;-70
2021/10/06 05:08:54;;;;;;;27.20;13.67;;;;;;;8.44;100.00;95454.81;10179919;29;20028;-70
2021/10/06 05:13:55;;;;;;;25.90;14.07;;;;;;;8.63;100.00;95452.75;10163616;29;20723;-71
2021/10/06 05:18:55;;;;;;;25.85;15.05;;;;;;;8.77;100.00;95453.25;10165550;29;20032;-73
2021/10/06 05:23:56;;;;;;;22.50;13.00;;;;;;;8.95;100.00;95444.94;10165277;29;20419;-71
2021/10/06 05:28:56;;;;;;;19.87;12.77;;;;;;;9.08;100.00;95435.75;10164467;29;20483;-70
2021/10/06 05:33:56;;;;;;;21.97;14.10;;;;;;;9.12;100.00;95434.19;10163811;29;20291;-69
2021/10/06 05:38:57;;;;;;;24.30;12.93;;;;;;;9.27;100.00;95430.13;10165531;29;20295;-75
2021/10/06 05:43:57;;;;;;;25.40;13.07;;;;;;;9.47;100.00;95427.69;10179477;29;20480;-70
2021/10/06 05:48:58;;;;;;;22.35;13.57;;;;;;;9.58;100.00;95429.44;10157065;29;20809;-72
2021/10/06 05:53:58;;;;;;;22.83;13.00;;;;;;;9.80;100.00;95425.97;10124206;29;20032;-71
2021/10/06 05:58:59;;;;;;;23.42;12.27;;;;;;;10.04;100.00;95431.84;10123540;29;20041;-73
2021/10/06 06:03:59;;;;;;;20.27;12.07;;;;;;;10.15;100.00;95431.97;10122995;29;20060;-76
2021/10/06 06:09:00;;;;;;;21.05;12.60;;;;;;;10.53;100.00;95435.59;10152229;29;20036;-71
2021/10/06 06:14:00;;;;;;;22.60;10.97;;;;;;;10.74;100.00;95442.78;10178491;29;20084;-70
2021/10/06 06:19:01;;;;;;;22.52;11.85;;;;;;;11.20;100.00;95430.72;10162709;29;21036;-74
2021/10/06 06:24:01;;;;;;;23.17;11.63;;;;;;;11.61;100.00;95431.75;10162670;29;20462;-76
2021/10/06 06:29:02;;;;;;;21.88;11.85;;;;;;;11.78;100.00;95431.53;10163591;29;20040;-71
2021/10/06 06:34:02;;;;;;;18.98;10.93;;;;;;;12.12;100.00;95433.03;10146401;29;20036;-72
2021/10/06 06:39:03;;;;;;;20.53;11.87;;;;;;;12.47;100.00;95436.88;10146680;29;20058;-74
2021/10/06 06:44:04;;;;;;;17.70;10.57;;;;;;;12.50;100.00;95435.53;10163796;29;20288;-70
2021/10/06 06:49:04;;;;;;;13.40;8.95;;;;;;;12.83;100.00;95429.59;10162129;29;20113;-70
2021/10/06 06:54:05;;;;;;;25.93;10.80;;;;;;;13.38;100.00;95423.66;10179388;29;20028;-74
2021/10/06 06:59:06;;;;;;;17.83;9.25;;;;;;;13.67;100.00;95426.53;10202913;29;20279;-69
2021/10/06 07:04:08;;;;;;;20.38;10.30;;;;;;;13.83;100.00;95427.28;10194664;29;20934;-70
2021/10/06 07:09:09;;;;;;;18.42;11.25;;;;;;;13.37;100.00;95432.84;10184983;29;20585;-70
2021/10/06 07:14:10;;;;;;;14.32;9.93;;;;;;;13.44;100.00;95438.75;10168751;29;20036;-72
2021/10/06 07:19:10;;;;;;;17.13;10.70;;;;;;;12.81;100.00;95436.38;10169093;29;20381;-69
2021/10/06 07:24:13;;;;;;;21.20;11.18;;;;;;;12.68;100.00;95458.47;10184852;29;20778;-72
2021/10/06 07:29:13;;;;;;;18.23;10.90;;;;;;;12.92;100.00;95448.78;10184873;29;20541;-76
2021/10/06 07:34:15;;;;;;;18.58;10.52;;;;;;;13.27;100.00;95449.84;10169517;29;20104;-73
2021/10/06 07:39:16;;;;;;;18.58;10.25;;;;;;;13.25;100.00;95451.19;10192071;29;20399;-71
2021/10/06 07:44:17;;;;;;;21.92;11.75;;;;;;;12.99;100.00;95452.00;10207630;29;20032;-71
2021/10/06 07:49:18;;;;;;;21.75;11.38;;;;;;;12.75;100.00;95453.63;10209465;28;20114;-69
2021/10/06 07:54:18;;;;;;;19.48;10.73;;;;;;;12.77;100.00;95463.06;10206894;29;20107;-73
2021/10/06 07:59:19;;;;;;;21.83;11.68;;;;;;;13.32;100.00;95462.50;10192602;29;20042;-74
2021/10/06 08:04:19;;;;;;;20.30;10.38;;;;;;;13.83;100.00;95457.00;10170481;29;20578;-73
2021/10/06 08:09:20;;;;;;;18.45;10.48;;;;;;;14.32;100.00;95468.16;10179665;29;20131;-73
2021/10/06 08:14:21;;;;;;;16.42;9.73;;;;;;;16.20;85.00;95468.69;10205415;29;20028;-72
2021/10/06 08:19:21;;;;;;;14.02;8.07;;;;;;;17.46;69.31;95459.22;10140412;29;20482;-71
2021/10/06 08:24:22;;;;;;;11.77;7.07;;;;;;;20.07;53.29;95459.09;10164319;29;20471;-73
2021/10/06 08:29:22;;;;;;;13.68;7.70;;;;;;;22.49;46.73;95453.19;10167088;29;20288;-70
2021/10/06 08:34:23;;;;;;;12.57;7.40;;;;;;;22.19;44.82;95451.25;10164650;29;20590;-71
2021/10/06 08:39:24;;;;;;;11.52;7.13;;;;;;;21.70;45.44;95450.00;10164272;29;20560;-71
2021/10/06 08:44:32;;;;;;;11.07;7.65;;;;;;;20.31;48.71;95452.41;10163130;29;20533;-73
2021/10/06 08:49:33;;;;;;;;;;;;;;;19.92;50.37;95440.44;10163294;29;20434;-74
2021/10/06 08:54:33;;;;;;;14.77;8.05;;;;;;;18.92;53.16;95451.38;10163302;29;19934;-69
2021/10/06 08:59:34;;;;;;;11.98;7.97;;;;;;;18.49;56.83;95443.63;10161869;29;20031;-71
2021/10/06 09:04:34;;;;;;;16.50;8.27;;;;;;;18.42;58.96;95437.81;10145861;29;20082;-71
2021/10/06 09:09:37;;;;;;;12.70;8.20;;;;;;;19.12;55.89;95438.38;10163056;29;20299;-71
2021/10/06 09:14:41;;;;;;;12.55;8.07;;;;;;;18.37;56.49;95444.16;10164888;29;20032;-72
2021/10/06 09:19:53;;;;;;;12.70;7.90;;;;;;;18.80;54.67;95437.47;10165091;29;20035;-76
2021/10/06 09:25:05;;;;;;;14.75;8.10;;;;;;;17.90;56.75;95451.59;10161992;29;20031;-71
2021/10/06 09:30:08;;;;;;;15.48;7.65;;;;;;;17.36;60.48;95454.78;10148190;29;20063;-70
2021/10/06 09:35:18;;;;;;;16.33;9.73;;;;;;;17.65;61.95;95459.16;10132156;29;20083;-71
2021/10/06 09:40:28;;;;;;;10.60;7.95;;;;;;;17.76;61.97;95460.59;10179090;29;20042;-70
2021/10/06 09:45:34;;;;;;;13.88;8.43;;;;;;;18.64;56.51;95452.56;10163515;29;20226;-70
2021/10/06 09:50:42;;;;;;;13.25;7.88;;;;;;;18.03;56.34;95466.34;10148413;29;20032;-75
2021/10/06 09:55:46;;;;;;;10.68;8.00;;;;;;;18.86;52.81;95443.63;10162929;29;20483;-70
2021/10/06 10:00:48;;;;;;;13.23;7.45;;;;;;;19.40;50.77;95430.06;10162813;29;20051;-73
2021/10/06 10:05:49;;;;;;;8.50;6.65;;;;;;;20.35;48.92;95425.31;10162181;29;20083;-72
2021/10/06 10:10:50;;;;;;;13.48;7.78;;;;;;;21.78;44.70;95406.22;10162867;29;20032;-70
2021/10/06 10:15:51;;;;;;;7.60;5.95;;;;;;;21.06;44.62;95408.63;10179608;29;20086;-70
2021/10/06 10:20:52;;;;;;;12.05;7.05;;;;;;;20.45;46.88;95398.47;10187850;28;20031;-70
2021/10/06 10:25:52;;;;;;;13.07;7.20;;;;;;;22.30;42.82;95416.06;10168616;29;20110;-70
2021/10/06 10:30:53;;;;;;;11.45;7.10;;;;;;;21.63;44.33;95404.03;10146087;29;20458;-70
2021/10/06 10:35:53;;;;;;;11.03;6.83;;;;;;;22.87;41.81;95400.19;10162017;29;20059;-70
2021/10/06 10:40:58;;;;;;;17.83;6.33;;;;;;;22.59;40.85;95399.94;10161570;29;20651;-74
2021/10/06 10:46:11;;;;;;;10.38;7.00;;;;;;;21.79;43.17;95396.06;10161120;29;20286;-71
2021/10/06 10:51:12;;;;;;;11.57;7.22;;;;;;;22.67;41.83;95394.41;10139592;29;20119;-71
2021/10/06 10:56:12;;;;;;;8.70;7.00;;;;;;;22.74;41.55;95390.34;10173326;29;20082;-71
2021/10/06 11:01:14;;;;;;;10.60;6.93;;;;;;;23.89;39.66;95383.38;10148544;29;20044;-74
2021/10/06 11:06:33;;;;;;;10.45;6.45;;;;;;;22.91;39.90;95390.16;10161179;29;20593;-69
2021/10/06 11:11:34;;;;;;;14.60;8.00;;;;;;;20.97;44.42;95362.19;10156613;29;20904;-70
2021/10/06 11:17:09;;;;;;;11.68;8.13;;;;;;;20.87;44.71;95354.31;10142936;29;20028;-73
2021/10/06 11:22:22;;;;;;;11.98;8.32;;;;;;;20.74;45.80;95347.13;10158536;29;20038;-75
2021/10/06 11:27:23;;;;;;;12.68;9.68;;;;;;;18.98;49.07;95358.63;10158805;29;20031;-68
2021/10/06 11:32:24;;;;;;;20.17;11.85;;;;;;;17.50;59.11;95351.53;10160175;29;20031;-76
2021/10/06 11:37:27;;;;;;;14.50;9.02;;;;;;;16.68;63.03;95361.91;10160500;29;20027;-70
2021/10/06 11:42:31;;;;;;;14.32;9.57;;;;;;;16.04;70.50;95348.75;10143518;29;20625;-72
2021/10/06 11:47:37;;;;;;;15.13;10.57;;;;;;;15.64;75.97;95347.38;10163679;29;20096;-72
2021/10/06 11:52:37;;;;;;;17.98;10.07;;;;;;;15.28;79.24;95354.03;10202317;29;20605;-76
2021/10/06 11:57:38;;;;;;;14.55;10.25;;;;;;;15.06;82.71;95340.16;10204300;29;20026;-71
2021/10/06 12:02:39;;;;;;;18.97;9.70;;;;;;;15.27;81.50;95330.75;10169634;29;20040;-72
2021/10/06 12:07:40;;;;;;;18.23;10.20;;;;;;;15.26;82.65;95322.91;10151093;29;20695;-71
2021/10/06 12:12:41;;;;;;;18.27;10.50;;;;;;;15.19;83.13;95324.03;10183095;29;20035;-71
2021/10/06 12:17:44;;;;;;;15.57;9.63;;;;;;;15.45;81.35;95323.75;10168173;29;20418;-70
2021/10/06 12:22:49;;;;;;;13.73;9.20;;;;;;;15.27;81.70;95314.50;10166692;29;20080;-71
2021/10/06 12:27:58;;;;;;;19.73;10.77;;;;;;;15.38;86.20;95310.56;10183131;29;20032;-72
2021/10/06 12:33:02;;;;;;;15.65;9.77;;;;;;;15.48;81.35;95300.72;10178063;29;20070;-70
2021/10/06 12:38:03;;;;;;;17.35;10.70;;;;;;;15.23;81.76;95293.72;10208751;29;20058;-70
2021/10/06 12:43:21;;;;;;;20.13;9.05;;;;;;;15.38;82.91;95296.22;10182081;29;20038;-70
2021/10/06 12:48:52;;;;;;;15.77;9.32;;;;;;;15.58;80.59;95284.31;10166080;29;20083;-70
2021/10/06 12:53:56;;;;;;;17.35;9.95;;;;;;;15.52;82.60;95283.56;10164765;29;20028;-70
2021/10/06 12:59:06;;;;;;;20.40;10.13;;;;;;;15.71;79.20;95288.19;10164646;29;20032;-73
2021/10/06 13:04:10;;;;;;;19.85;9.73;;;;;;;15.49;80.35;95286.88;10163154;29;20040;-74
2021/10/06 13:09:12;;;;;;;16.80;9.75;;;;;;;15.44;81.88;95276.09;10161488;29;20836;-74
2021/10/06 13:14:13;;;;;;;14.82;9.90;;;;;;;15.34;81.77;95271.63;10161636;29;20067;-71
2021/10/06 13:19:15;;;;;;;18.38;10.48;;;;;;;15.15;85.37;95268.06;10176275;29;20032;-74
2021/10/06 13:24:16;;;;;;;17.65;10.65;;;;;;;14.90;90.01;95261.03;10194706;29;20114;-72
2021/10/06 13:29:19;;;;;;;20.58;10.60;;;;;;;14.83;91.24;95259.50;10175275;29;20024;-73
2021/10/06 13:34:22;;;;;;;21.17;11.35;;;;;;;14.78;93.03;95253.34;10179756;29;20140;-71
2021/10/06 13:39:22;;;;;;;16.88;9.30;;;;;;;14.85;81.94;95253.78;10174901;29;20470;-70
2021/10/06 13:44:23;;;;;;;13.52;7.85;;;;;;;14.79;75.88;95258.44;10202758;29;20103;-69
2021/10/06 13:49:23;;;;;;;19.43;8.97;;;;;;;14.71;78.58;95253.66;10177131;29;20036;-70
2021/10/06 13:54:24;;;;;;;13.63;8.77;;;;;;;14.67;79.67;95248.00;10162807;29;20308;-69
2021/10/06 13:59:25;;;;;;;19.92;10.48;;;;;;;14.90;85.08;95253.72;10150734;29;20279;-70
2021/10/06 14:04:27;;;;;;;17.73;11.55;;;;;;;14.41;93.53;95254.72;10159492;29;20428;-70
2021/10/06 14:09:27;;;;;;;15.63;10.00;;;;;;;14.38;93.82;95253.41;10141512;29;20414;-73
2021/10/06 14:14:28;;;;;;;15.60;9.93;;;;;;;14.47;90.11;95254.41;10167422;29;20039;-68
2021/10/06 14:19:28;;;;;;;20.48;10.48;;;;;;;14.26;87.54;95255.66;10163321;29;20028;-69
2021/10/06 14:24:29;;;;;;;13.85;8.75;;;;;;;14.18;86.25;95263.28;10144952;29;20023;-70
2021/10/06 14:29:31;;;;;;;13.07;8.43;;;;;;;14.01;86.40;95265.59;10161131;29;20027;-75
2021/10/06 14:34:32;;;;;;;11.45;8.65;;;;;;;13.80;86.33;95254.94;10176295;29;20028;-73
2021/10/06 14:39:32;;;;;;;13.40;8.27;;;;;;;13.64;88.40;95261.50;10160528;29;20032;-73
2021/10/06 14:44:33;;;;;;;12.48;7.95;;;;;;;13.36;89.48;95260.31;10161163;29;20031;-74
2021/10/06 14:49:36;;;;;;;14.73;8.88;;;;;;;13.23;91.92;95257.09;10161278;29;20028;-74
2021/10/06 14:54:36;;;;;;;11.95;7.07;;;;;;;13.09;93.97;95250.69;10165670;29;20414;-71
2021/10/06 14:59:37;;;;;;;15.13;8.88;;;;;;;12.94;96.28;95255.06;10144577;29;20028;-73
2021/10/06 15:04:38;;;;;;;15.80;9.82;;;;;;;12.93;98.38;95255.34;10175663;29;20086;-69
2021/10/06 15:09:38;;;;;;;16.15;9.10;;;;;;;12.92;97.42;95248.31;10143684;29;20493;-73
2021/10/06 15:14:39;;;;;;;17.95;8.55;;;;;;;12.87;98.45;95257.25;10159967;29;20024;-69
2021/10/06 15:19:39;;;;;;;14.43;8.70;;;;;;;12.76;100.00;95266.44;10160443;29;20076;-70
2021/10/06 15:24:40;;;;;;;20.38;10.75;;;;;;;12.63;100.00;95251.66;10167788;29;20582;-74
2021/10/06 15:29:42;;;;;;;21.23;10.70;;;;;;;12.67;100.00;95255.41;10167116;29;20023;-75
2021/10/06 15:34:43;;;;;;;17.33;9.15;;;;;;;12.56;100.00;95259.19;10146419;29;20058;-71
2021/10/06 15:39:43;;;;;;;19.15;9.75;;;;;;;12.54;100.00;95255.97;10163862;29;20112;-71
2021/10/06 15:44:44;;;;;;;17.42;9.63;;;;;;;12.44;100.00;95270.28;10167449;29;20070;-76
2021/10/06 15:49:46;;;;;;;14.00;8.93;;;;;;;12.34;100.00;95267.59;10162613;29;20119;-72
2021/10/06 15:54:47;;;;;;;15.52;9.32;;;;;;;12.27;100.00;95265.97;10166257;29;20430;-75
2021/10/06 15:59:48;;;;;;;14.45;9.95;;;;;;;12.22;100.00;95270.56;10164268;29;20506;-71
2021/10/06 16:04:48;;;;;;;15.95;8.57;;;;;;;12.10;100.00;95271.63;10168085;29;20135;-74
2021/10/06 16:09:49;;;;;;;13.07;7.88;;;;;;;12.02;100.00;95282.94;10166208;29;20036;-72
2021/10/06 16:14:49;;;;;;;17.00;9.85;;;;;;;12.00;100.00;95287.81;10166390;29;20116;-71
2021/10/06 16:19:50;;;;;;;18.98;10.65;;;;;;;11.97;100.00;95282.94;10167723;29;20054;-73
2021/10/06 16:24:51;;;;;;;17.38;10.65;;;;;;;12.03;100.00;95279.19;10181480;29;20028;-71
2021/10/06 16:29:52;;;;;;;20.63;11.35;;;;;;;12.01;100.00;95270.53;10181330;29;20028;-69
2021/10/06 16:34:52;;;;;;;19.70;10.68;;;;;;;12.01;100.00;95262.47;10166532;29;20028;-73
2021/10/06 16:39:53;;;;;;;21.20;10.38;;;;;;;12.06;100.00;95265.16;10167302;29;20028;-73
2021/10/06 16:44:53;;;;;;;17.92;11.15;;;;;;;12.05;100.00;95262.75;10179842;29;20034;-69
2021/10/06 16:49:54;;;;;;;17.73;10.38;;;;;;;12.12;100.00;95266.78;10165403;29;20056;-68
2021/10/06 16:54:54;;;;;;;22.20;11.43;;;;;;;12.22;100.00;95273.25;10179641;29;20027;-73
2021/10/06 16:59:55;;;;;;;18.67;11.45;;;;;;;12.16;100.00;95283.22;10159998;29;20036;-72
2021/10/06 17:04:56;;;;;;;19.55;11.80;;;;;;;12.07;100.00;95290.22;10159734;29;20103;-70
2021/10/06 17:09:57;;;;;;;23.93;12.23;;;;;;;11.98;100.00;95283.75;10180012;29;20036;-69
2021/10/06 17:14:57;;;;;;;23.80;12.70;;;;;;;11.73;100.00;95290.69;10150833;29;20291;-71
2021/10/06 17:19:58;;;;;;;25.52;13.20;;;;;;;11.72;100.00;95289.91;10165397;29;20043;-68
2021/10/06 17:25:02;;;;;;;27.70;13.88;;;;;;;11.65;100.00;95297.38;10176469;29;20040;-68
2021/10/06 17:30:06;;;;;;;22.30;12.90;;;;;;;11.51;100.00;95297.13;10158810;29;20028;-69
2021/10/06 17:35:08;;;;;;;23.90;14.27;;;;;;;11.37;100.00;95291.41;10190244;29;20109;-68
2021/10/06 17:40:12;;;;;;;27.13;14.98;;;;;;;11.27;100.00;95286.81;10164199;29;20040;-71
2021/10/06 17:45:13;;;;;;;28.27;15.60;;;;;;;11.29;100.00;95273.09;10180960;29;20016;-73
2021/10/06 17:50:14;;;;;;;27.10;14.32;;;;;;;11.31;100.00;95264.75;10167987;29;20103;-71
2021/10/06 17:55:15;;;;;;;32.38;14.55;;;;;;;11.41;100.00;95270.97;10180018;29;20028;-73
2021/10/06 18:00:18;;;;;;;28.13;14.85;;;;;;;11.42;100.00;95283.34;10169848;29;20030;-68
2021/10/06 18:05:22;;;;;;;26.52;14.82;;;;;;;11.47;100.00;95277.19;10190644;29;20515;-69
2021/10/06 18:10:23;;;;;;;24.38;13.73;;;;;;;11.49;100.00;95288.47;10164503;29;20122;-70
2021/10/06 18:15:25;;;;;;;28.88;15.43;;;;;;;11.45;100.00;95295.47;10178677;29;20024;-71
2021/10/06 18:20:25;;;;;;;24.60;14.43;;;;;;;11.41;100.00;95297.06;10161635;29;20498;-70
2021/10/06 18:25:26;;;;;;;30.92;15.10;;;;;;;11.33;100.00;95294.88;10192304;29;20066;-70
2021/10/06 18:30:29;;;;;;;29.10;15.43;;;;;;;11.10;100.00;95295.06;10185529;29;20032;-71
2021/10/06 18:35:30;;;;;;;24.02;14.65;;;;;;;10.91;100.00;95293.91;10123046;29;20032;-70
2021/10/06 18:40:31;;;;;;;26.88;14.95;;;;;;;10.77;100.00;95296.25;10140600;29;20035;-70
2021/10/06 18:45:32;;;;;;;26.88;14.88;;;;;;;10.72;100.00;95291.66;10201115;29;20023;-70
2021/10/06 18:50:33;;;;;;;29.02;15.85;;;;;;;10.53;100.00;95285.09;10168916;29;20513;-70
2021/10/06 18:55:33;;;;;;;26.17;14.95;;;;;;;10.46;100.00;95274.56;10163886;29;20030;-72
2021/10/06 19:00:34;;;;;;;32.10;16.80;;;;;;;10.39;100.00;95277.47;10190633;29;20150;-69
2021/10/06 19:05:34;;;;;;;27.75;14.30;;;;;;;10.54;100.00;95263.31;10191938;29;20098;-69
2021/10/06 19:10:35;;;;;;;28.98;14.00;;;;;;;10.58;100.00;95261.72;10170694;29;20491;-69
2021/10/06 19:15:42;;;;;;;23.67;13.70;;;;;;;10.70;100.00;95261.53;10168413;29;20038;-72
2021/10/06 19:20:44;;;;;;;24.70;12.52;;;;;;;10.74;100.00;95270.72;10197697;29;20106;-68
2021/10/06 19:25:46;;;;;;;24.42;12.27;;;;;;;10.76;100.00;95265.06;10208709;29;20039;-72
2021/10/06 19:30:47;;;;;;;23.08;12.35;;;;;;;10.79;100.00;95267.22;10154733;29;20036;-69
2021/10/06 19:35:48;;;;;;;27.48;12.10;;;;;;;10.81;100.00;95275.03;10168245;29;20040;-70
2021/10/06 19:40:48;;;;;;;19.25;11.45;;;;;;;10.66;100.00;95270.38;10168907;29;20498;-69
2021/10/06 19:45:49;;;;;;;24.08;11.43;;;;;;;10.68;100.00;95268.25;10183426;29;20028;-73
2021/10/06 19:50:50;;;;;;;19.80;12.05;;;;;;;10.74;100.00;95284.16;10167424;29;20034;-69
2021/10/06 19:55:50;;;;;;;22.55;9.93;;;;;;;10.75;100.00;95284.94;10181478;29;20425;-71
2021/10/06 20:00:51;;;;;;;19.40;10.98;;;;;;;10.68;100.00;95284.38;10174864;29;20052;-70
2021/10/06 20:05:51;;;;;;;19.75;11.18;;;;;;;10.66;100.00;95281.94;10181620;29;20726;-69
2021/10/06 20:10:52;;;;;;;19.95;10.88;;;;;;;10.60;100.00;95288.34;10124970;29;20434;-70
2021/10/06 20:15:52;;;;;;;19.60;11.20;;;;;;;10.52;100.00;95281.59;10125948;29;20032;-70
2021/10/06 20:20:54;;;;;;;19.33;10.55;;;;;;;10.51;100.00;95284.53;10176791;29;20032;-71
2021/10/06 20:25:55;;;;;;;18.67;11.25;;;;;;;10.45;100.00;95286.34;10167454;29;20024;-75
2021/10/06 20:30:56;;;;;;;24.80;12.73;;;;;;;10.23;100.00;95289.16;10164394;29;20551;-73
2021/10/06 20:40:57;;;;;;;22.20;12.70;;;;;;;10.00;100.00;95280.34;10166648;29;20028;-69
2021/10/06 20:45:57;;;;;;;26.13;14.77;;;;;;;9.75;100.00;95275.56;10165492;29;20484;-69
2021/10/06 20:50:58;;;;;;;24.23;13.35;;;;;;;9.62;100.00;95282.16;10167411;29;20064;-70
2021/10/06 20:55:59;;;;;;;22.85;13.13;;;;;;;9.62;100.00;95289.41;10182065;29;20036;-69
2021/10/06 21:01:04;;;;;;;22.13;11.57;;;;;;;9.70;100.00;95297.00;10165551;29;20150;-69
2021/10/06 21:06:05;;;;;;;26.23;12.65;;;;;;;9.80;100.00;95296.31;10167132;29;20189;-69
2021/10/06 21:11:05;;;;;;;22.98;12.27;;;;;;;9.95;100.00;95303.66;10181334;29;20034;-68
2021/10/06 21:16:06;;;;;;;20.83;11.98;;;;;;;10.01;100.00;95295.41;10165335;29;20462;-70
2021/10/06 21:21:07;;;;;;;24.88;11.90;;;;;;;10.24;100.00;95298.81;10165835;29;20513;-68
2021/10/06 21:26:07;;;;;;;18.88;11.05;;;;;;;10.35;100.00;95311.28;10149395;29;20427;-70
2021/10/06 21:31:09;;;;;;;18.75;11.25;;;;;;;10.37;100.00;95305.69;10180320;29;20032;-76
2021/10/06 21:36:10;;;;;;;13.88;9.25;;;;;;;10.53;100.00;95302.00;10181206;29;20028;-70
2021/10/06 21:41:10;;;;;;;17.52;8.60;;;;;;;10.65;100.00;95290.28;10164470;29;20036;-71
2021/10/06 21:46:11;;;;;;;13.82;8.02;;;;;;;10.75;100.00;95290.31;10164217;29;20240;-76
2021/10/06 21:51:11;;;;;;;21.50;8.18;;;;;;;10.77;100.00;95294.38;10179923;29;20036;-68
2021/10/06 21:56:12;;;;;;;16.83;7.47;;;;;;;10.87;100.00;95292.78;10179442;29;20028;-70
2021/10/06 22:01:12;;;;;;;8.97;5.47;;;;;;;10.81;100.00;95291.16;10178988;29;20143;-70
2021/10/06 22:06:13;;;;;;;9.77;6.00;;;;;;;10.86;100.00;95304.66;10163455;29;20284;-70
2021/10/06 22:11:13;;;;;;;11.80;6.65;;;;;;;10.94;100.00;95314.91;10164773;29;20119;-70
2021/10/06 22:16:14;;;;;;;9.77;6.95;;;;;;;11.00;100.00;95315.75;10163722;29;20028;-69
2021/10/06 22:21:14;;;;;;;6.85;5.97;;;;;;;11.07;100.00;95305.56;10164723;29;20522;-69
2021/10/06 22:26:15;;;;;;;10.40;6.50;;;;;;;11.02;100.00;95290.19;10163064;29;20040;-68
2021/10/06 22:31:15;;;;;;;9.05;5.78;;;;;;;10.97;100.00;95294.72;10164850;29;20032;-71
2021/10/06 22:36:16;;;;;;;9.30;6.93;;;;;;;10.94;100.00;95288.03;10178494;29;20391;-72
2021/10/06 22:41:18;;;;;;;7.10;5.88;;;;;;;11.02;100.00;95276.72;10162619;29;20032;-71
2021/10/06 22:46:18;;;;;;;6.28;5.32;;;;;;;11.09;100.00;95279.19;10178399;29;20344;-72
2021/10/06 22:51:19;;;;;;;6.63;4.80;;;;;;;11.08;100.00;95278.38;10162189;29;20061;-69
2021/10/06 22:56:19;;;;;;;10.60;5.65;;;;;;;10.92;100.00;95271.31;10163583;29;20055;-69
2021/10/06 23:01:20;;;;;;;6.78;4.55;;;;;;;10.85;100.00;95271.53;10146206;29;20052;-70